sensor_id;sensor_type;location;lat;lon;timestamp;P1;durP1;ratioP1;P2;durP2;ratioP2
27257;SDS011;62045;49.986;8.672;2023-02-15T00:04:58;3.00;;;1.80;;
27257;SDS011;62045;49.986;8.672;2023-02-15T00:09:59;3.85;;;2.17;;
27257;SDS011;62045;49.986;8.672;2023-02-15T00:15:01;3.67;;;1.80;;
27257;SDS011;62045;49.986;8.672;2023-02-15T00:20:02;3.90;;;2.15;;
27257;SDS011;62045;49.986;8.672;2023-02-15T00:25:04;3.45;;;1.80;;
27257;SDS011;62045;49.986;8.672;2023-02-15T00:30:06;4.45;;;2.20;;
27257;SDS011;62045;49.986;8.672;2023-02-15T00:35:08;3.47;;;2.30;;
27257;SDS011;62045;49.986;8.672;2023-02-15T00:40:09;3.60;;;2.10;;
27257;SDS011;62045;49.986;8.672;2023-02-15T00:45:11;3.35;;;1.63;;
27257;SDS011;62045;49.986;8.672;2023-02-15T00:50:12;4.10;;;2.30;;
27257;SDS011;62045;49.986;8.672;2023-02-15T00:55:13;3.60;;;2.00;;
27257;SDS011;62045;49.986;8.672;2023-02-15T01:00:15;3.55;;;1.90;;
27257;SDS011;62045;49.986;8.672;2023-02-15T01:05:16;3.10;;;1.92;;
27257;SDS011;62045;49.986;8.672;2023-02-15T01:10:17;2.83;;;1.90;;
27257;SDS011;62045;49.986;8.672;2023-02-15T01:15:20;3.28;;;1.90;;
27257;SDS011;62045;49.986;8.672;2023-02-15T01:20:22;4.22;;;2.47;;
27257;SDS011;62045;49.986;8.672;2023-02-15T01:25:24;3.15;;;2.00;;
27257;SDS011;62045;49.986;8.672;2023-02-15T01:30:27;3.08;;;2.00;;
27257;SDS011;62045;49.986;8.672;2023-02-15T01:35:27;3.38;;;1.85;;
27257;SDS011;62045;49.986;8.672;2023-02-15T01:40:28;2.67;;;1.90;;
27257;SDS011;62045;49.986;8.672;2023-02-15T01:45:31;3.00;;;1.88;;
27257;SDS011;62045;49.986;8.672;2023-02-15T01:50:32;3.57;;;2.17;;
27257;SDS011;62045;49.986;8.672;2023-02-15T01:55:36;2.97;;;1.88;;
27257;SDS011;62045;49.986;8.672;2023-02-15T02:00:40;3.97;;;2.20;;
27257;SDS011;62045;49.986;8.672;2023-02-15T02:05:42;3.47;;;1.90;;
27257;SDS011;62045;49.986;8.672;2023-02-15T02:10:46;3.35;;;2.05;;
27257;SDS011;62045;49.986;8.672;2023-02-15T02:15:51;3.47;;;1.92;;
27257;SDS011;62045;49.986;8.672;2023-02-15T02:32:23;3.38;;;2.05;;
27257;SDS011;62045;49.986;8.672;2023-02-15T02:37:58;4.15;;;2.00;;
27257;SDS011;62045;49.986;8.672;2023-02-15T02:43:05;3.45;;;1.90;;
27257;SDS011;62045;49.986;8.672;2023-02-15T02:48:13;3.45;;;1.90;;
27257;SDS011;62045;49.986;8.672;2023-02-15T02:53:17;3.70;;;2.00;;
27257;SDS011;62045;49.986;8.672;2023-02-15T02:58:19;3.28;;;1.95;;
27257;SDS011;62045;49.986;8.672;2023-02-15T03:03:24;5.03;;;2.28;;
27257;SDS011;62045;49.986;8.672;2023-02-15T03:08:31;3.13;;;1.58;;
27257;SDS011;62045;49.986;8.672;2023-02-15T03:13:36;2.53;;;1.63;;
27257;SDS011;62045;49.986;8.672;2023-02-15T03:18:41;3.22;;;1.70;;
27257;SDS011;62045;49.986;8.672;2023-02-15T03:23:48;3.50;;;1.88;;
27257;SDS011;62045;49.986;8.672;2023-02-15T03:28:53;3.28;;;1.85;;
27257;SDS011;62045;49.986;8.672;2023-02-15T03:33:57;4.28;;;1.80;;
27257;SDS011;62045;49.986;8.672;2023-02-15T03:39:04;3.03;;;1.95;;
27257;SDS011;62045;49.986;8.672;2023-02-15T03:44:11;3.13;;;1.67;;
27257;SDS011;62045;49.986;8.672;2023-02-15T03:49:17;3.42;;;1.80;;
27257;SDS011;62045;49.986;8.672;2023-02-15T03:54:25;2.65;;;1.70;;
27257;SDS011;62045;49.986;8.672;2023-02-15T03:59:28;2.60;;;1.65;;
27257;SDS011;62045;49.986;8.672;2023-02-15T04:04:33;3.33;;;1.70;;
27257;SDS011;62045;49.986;8.672;2023-02-15T04:09:36;2.80;;;1.70;;
27257;SDS011;62045;49.986;8.672;2023-02-15T04:14:37;3.50;;;1.83;;
27257;SDS011;62045;49.986;8.672;2023-02-15T04:19:38;3.00;;;1.70;;
27257;SDS011;62045;49.986;8.672;2023-02-15T04:24:40;2.67;;;1.60;;
27257;SDS011;62045;49.986;8.672;2023-02-15T04:29:40;3.60;;;1.90;;
27257;SDS011;62045;49.986;8.672;2023-02-15T04:34:41;2.95;;;1.60;;
27257;SDS011;62045;49.986;8.672;2023-02-15T04:39:43;3.72;;;2.17;;
27257;SDS011;62045;49.986;8.672;2023-02-15T04:44:44;4.68;;;2.35;;
27257;SDS011;62045;49.986;8.672;2023-02-15T04:49:45;3.28;;;2.10;;
27257;SDS011;62045;49.986;8.672;2023-02-15T04:54:47;2.70;;;1.65;;
27257;SDS011;62045;49.986;8.672;2023-02-15T04:59:48;3.17;;;1.90;;
27257;SDS011;62045;49.986;8.672;2023-02-15T05:04:48;3.15;;;1.63;;
27257;SDS011;62045;49.986;8.672;2023-02-15T05:09:50;3.17;;;2.13;;
27257;SDS011;62045;49.986;8.672;2023-02-15T05:14:51;3.70;;;1.90;;
27257;SDS011;62045;49.986;8.672;2023-02-15T05:19:52;3.08;;;1.55;;
27257;SDS011;62045;49.986;8.672;2023-02-15T05:24:54;3.58;;;2.10;;
27257;SDS011;62045;49.986;8.672;2023-02-15T05:29:54;3.13;;;2.05;;
27257;SDS011;62045;49.986;8.672;2023-02-15T05:34:55;2.83;;;1.83;;
27257;SDS011;62045;49.986;8.672;2023-02-15T05:39:57;4.43;;;1.67;;
27257;SDS011;62045;49.986;8.672;2023-02-15T05:44:58;3.78;;;1.98;;
27257;SDS011;62045;49.986;8.672;2023-02-15T05:49:59;3.60;;;1.90;;
27257;SDS011;62045;49.986;8.672;2023-02-15T05:55:01;2.88;;;1.63;;
27257;SDS011;62045;49.986;8.672;2023-02-15T06:00:02;3.30;;;1.85;;
27257;SDS011;62045;49.986;8.672;2023-02-15T06:05:11;2.63;;;1.50;;
27257;SDS011;62045;49.986;8.672;2023-02-15T06:10:13;2.40;;;1.45;;
27257;SDS011;62045;49.986;8.672;2023-02-15T06:15:14;2.60;;;1.60;;
27257;SDS011;62045;49.986;8.672;2023-02-15T06:20:15;3.13;;;1.80;;
27257;SDS011;62045;49.986;8.672;2023-02-15T06:25:17;2.70;;;1.42;;
27257;SDS011;62045;49.986;8.672;2023-02-15T06:30:18;4.03;;;1.95;;
27257;SDS011;62045;49.986;8.672;2023-02-15T06:35:19;2.67;;;1.67;;
27257;SDS011;62045;49.986;8.672;2023-02-15T06:40:22;3.67;;;1.98;;
27257;SDS011;62045;49.986;8.672;2023-02-15T06:45:22;3.67;;;1.95;;
27257;SDS011;62045;49.986;8.672;2023-02-15T06:50:23;3.15;;;1.88;;
27257;SDS011;62045;49.986;8.672;2023-02-15T06:55:25;2.92;;;1.73;;
27257;SDS011;62045;49.986;8.672;2023-02-15T07:00:26;3.40;;;1.95;;
27257;SDS011;62045;49.986;8.672;2023-02-15T07:05:27;3.30;;;1.85;;
27257;SDS011;62045;49.986;8.672;2023-02-15T07:10:29;3.25;;;1.85;;
27257;SDS011;62045;49.986;8.672;2023-02-15T07:15:30;3.55;;;1.70;;
27257;SDS011;62045;49.986;8.672;2023-02-15T07:20:31;3.40;;;1.80;;
27257;SDS011;62045;49.986;8.672;2023-02-15T07:25:33;2.75;;;1.40;;
27257;SDS011;62045;49.986;8.672;2023-02-15T07:30:34;3.45;;;1.77;;
27257;SDS011;62045;49.986;8.672;2023-02-15T07:35:36;3.25;;;1.88;;
27257;SDS011;62045;49.986;8.672;2023-02-15T07:40:38;3.00;;;1.45;;
27257;SDS011;62045;49.986;8.672;2023-02-15T07:45:39;3.15;;;1.80;;
27257;SDS011;62045;49.986;8.672;2023-02-15T07:50:40;2.67;;;1.67;;
27257;SDS011;62045;49.986;8.672;2023-02-15T07:55:42;2.58;;;1.48;;
27257;SDS011;62045;49.986;8.672;2023-02-15T08:00:42;2.85;;;1.58;;
27257;SDS011;62045;49.986;8.672;2023-02-15T08:05:44;3.00;;;1.70;;
27257;SDS011;62045;49.986;8.672;2023-02-15T08:10:46;3.50;;;2.05;;
27257;SDS011;62045;49.986;8.672;2023-02-15T08:15:48;2.95;;;1.63;;
27257;SDS011;62045;49.986;8.672;2023-02-15T08:20:49;3.33;;;1.75;;
27257;SDS011;62045;49.986;8.672;2023-02-15T08:25:51;2.60;;;1.60;;
27257;SDS011;62045;49.986;8.672;2023-02-15T08:30:52;2.50;;;1.40;;
27257;SDS011;62045;49.986;8.672;2023-02-15T08:35:53;2.58;;;1.50;;
27257;SDS011;62045;49.986;8.672;2023-02-15T08:40:55;2.60;;;1.48;;
27257;SDS011;62045;49.986;8.672;2023-02-15T08:45:55;3.20;;;1.45;;
27257;SDS011;62045;49.986;8.672;2023-02-15T08:50:56;2.75;;;1.58;;
27257;SDS011;62045;49.986;8.672;2023-02-15T08:55:58;2.95;;;1.73;;
27257;SDS011;62045;49.986;8.672;2023-02-15T09:00:59;4.00;;;2.42;;
27257;SDS011;62045;49.986;8.672;2023-02-15T09:06:01;6.22;;;3.00;;
27257;SDS011;62045;49.986;8.672;2023-02-15T09:11:07;6.65;;;3.75;;
27257;SDS011;62045;49.986;8.672;2023-02-15T09:16:09;5.93;;;3.75;;
27257;SDS011;62045;49.986;8.672;2023-02-15T09:21:11;9.20;;;3.15;;
27257;SDS011;62045;49.986;8.672;2023-02-15T09:26:15;9.17;;;3.57;;
27257;SDS011;62045;49.986;8.672;2023-02-15T09:31:18;6.45;;;3.85;;
27257;SDS011;62045;49.986;8.672;2023-02-15T09:36:20;7.00;;;3.73;;
27257;SDS011;62045;49.986;8.672;2023-02-15T09:41:31;4.65;;;2.83;;
27257;SDS011;62045;49.986;8.672;2023-02-15T09:46:59;5.75;;;3.85;;
27257;SDS011;62045;49.986;8.672;2023-02-15T09:52:20;6.18;;;3.92;;
27257;SDS011;62045;49.986;8.672;2023-02-15T09:57:36;6.35;;;4.55;;
27257;SDS011;62045;49.986;8.672;2023-02-15T10:02:47;7.22;;;4.28;;
27257;SDS011;62045;49.986;8.672;2023-02-15T10:08:01;7.25;;;4.35;;
27257;SDS011;62045;49.986;8.672;2023-02-15T10:13:21;7.03;;;4.90;;
27257;SDS011;62045;49.986;8.672;2023-02-15T10:18:44;9.07;;;4.63;;
27257;SDS011;62045;49.986;8.672;2023-02-15T10:24:08;7.00;;;3.67;;
27257;SDS011;62045;49.986;8.672;2023-02-15T10:29:46;6.28;;;3.40;;
27257;SDS011;62045;49.986;8.672;2023-02-15T10:34:56;5.95;;;3.92;;
27257;SDS011;62045;49.986;8.672;2023-02-15T10:40:03;6.50;;;3.95;;
27257;SDS011;62045;49.986;8.672;2023-02-15T10:45:14;4.55;;;3.10;;
27257;SDS011;62045;49.986;8.672;2023-02-15T10:50:27;5.05;;;2.92;;
27257;SDS011;62045;49.986;8.672;2023-02-15T10:55:43;5.28;;;3.30;;
27257;SDS011;62045;49.986;8.672;2023-02-15T11:00:53;5.50;;;3.08;;
27257;SDS011;62045;49.986;8.672;2023-02-15T11:06:03;5.32;;;2.83;;
27257;SDS011;62045;49.986;8.672;2023-02-15T11:11:06;5.25;;;2.42;;
27257;SDS011;62045;49.986;8.672;2023-02-15T11:21:17;8.48;;;4.10;;
27257;SDS011;62045;49.986;8.672;2023-02-15T11:26:21;7.43;;;5.15;;
27257;SDS011;62045;49.986;8.672;2023-02-15T11:31:34;9.85;;;6.22;;
27257;SDS011;62045;49.986;8.672;2023-02-15T11:36:43;10.30;;;7.20;;
27257;SDS011;62045;49.986;8.672;2023-02-15T11:41:46;11.80;;;7.43;;
27257;SDS011;62045;49.986;8.672;2023-02-15T11:46:50;12.43;;;7.95;;
27257;SDS011;62045;49.986;8.672;2023-02-15T11:51:51;12.77;;;9.18;;
27257;SDS011;62045;49.986;8.672;2023-02-15T11:56:53;14.40;;;9.38;;
27257;SDS011;62045;49.986;8.672;2023-02-15T12:01:56;14.68;;;9.68;;
27257;SDS011;62045;49.986;8.672;2023-02-15T12:06:58;16.25;;;10.93;;
27257;SDS011;62045;49.986;8.672;2023-02-15T12:12:23;17.58;;;11.68;;
27257;SDS011;62045;49.986;8.672;2023-02-15T12:17:27;16.95;;;11.93;;
27257;SDS011;62045;49.986;8.672;2023-02-15T12:22:31;18.13;;;11.70;;
27257;SDS011;62045;49.986;8.672;2023-02-15T12:32:46;18.52;;;12.95;;
27257;SDS011;62045;49.986;8.672;2023-02-15T12:37:52;19.48;;;12.30;;
27257;SDS011;62045;49.986;8.672;2023-02-15T12:42:54;17.70;;;12.57;;
27257;SDS011;62045;49.986;8.672;2023-02-15T12:48:12;16.42;;;12.13;;
27257;SDS011;62045;49.986;8.672;2023-02-15T12:53:17;18.13;;;12.07;;
27257;SDS011;62045;49.986;8.672;2023-02-15T12:58:21;18.27;;;12.57;;
27257;SDS011;62045;49.986;8.672;2023-02-15T13:08:27;18.35;;;12.68;;
27257;SDS011;62045;49.986;8.672;2023-02-15T13:13:30;20.23;;;13.73;;
27257;SDS011;62045;49.986;8.672;2023-02-15T13:18:34;20.00;;;14.05;;
27257;SDS011;62045;49.986;8.672;2023-02-15T13:23:37;17.73;;;12.52;;
27257;SDS011;62045;49.986;8.672;2023-02-15T13:28:42;20.40;;;12.95;;
27257;SDS011;62045;49.986;8.672;2023-02-15T13:33:48;20.98;;;12.13;;
27257;SDS011;62045;49.986;8.672;2023-02-15T13:44:12;17.80;;;12.35;;
27257;SDS011;62045;49.986;8.672;2023-02-15T13:49:27;17.48;;;11.52;;
27257;SDS011;62045;49.986;8.672;2023-02-15T13:54:43;18.27;;;12.60;;
27257;SDS011;62045;49.986;8.672;2023-02-15T14:00:00;18.30;;;12.48;;
27257;SDS011;62045;49.986;8.672;2023-02-15T14:05:23;19.50;;;12.77;;
27257;SDS011;62045;49.986;8.672;2023-02-15T14:10:52;17.67;;;12.75;;
27257;SDS011;62045;49.986;8.672;2023-02-15T14:16:00;18.50;;;12.07;;
27257;SDS011;62045;49.986;8.672;2023-02-15T14:21:09;18.15;;;12.88;;
27257;SDS011;62045;49.986;8.672;2023-02-15T14:26:16;17.85;;;12.48;;
27257;SDS011;62045;49.986;8.672;2023-02-15T14:31:23;16.35;;;12.05;;
27257;SDS011;62045;49.986;8.672;2023-02-15T14:36:31;16.38;;;11.48;;
27257;SDS011;62045;49.986;8.672;2023-02-15T14:41:35;17.48;;;12.15;;
27257;SDS011;62045;49.986;8.672;2023-02-15T14:46:42;17.80;;;11.85;;
27257;SDS011;62045;49.986;8.672;2023-02-15T14:51:55;17.75;;;12.07;;
27257;SDS011;62045;49.986;8.672;2023-02-15T15:02:23;17.00;;;12.18;;
27257;SDS011;62045;49.986;8.672;2023-02-15T15:07:27;17.07;;;12.50;;
27257;SDS011;62045;49.986;8.672;2023-02-15T15:12:36;16.55;;;12.73;;
27257;SDS011;62045;49.986;8.672;2023-02-15T15:17:53;17.85;;;12.68;;
27257;SDS011;62045;49.986;8.672;2023-02-15T15:39:38;17.13;;;12.05;;
27257;SDS011;62045;49.986;8.672;2023-02-15T15:50:38;19.58;;;14.20;;
27257;SDS011;62045;49.986;8.672;2023-02-15T15:55:40;24.42;;;15.60;;
27257;SDS011;62045;49.986;8.672;2023-02-15T16:00:44;21.40;;;15.10;;
27257;SDS011;62045;49.986;8.672;2023-02-15T16:05:49;19.77;;;14.15;;
27257;SDS011;62045;49.986;8.672;2023-02-15T16:10:49;19.15;;;14.38;;
27257;SDS011;62045;49.986;8.672;2023-02-15T16:15:52;17.98;;;13.43;;
27257;SDS011;62045;49.986;8.672;2023-02-15T16:20:55;18.60;;;14.40;;
27257;SDS011;62045;49.986;8.672;2023-02-15T16:25:59;19.35;;;14.10;;
27257;SDS011;62045;49.986;8.672;2023-02-15T16:31:12;17.27;;;13.68;;
27257;SDS011;62045;49.986;8.672;2023-02-15T16:36:19;19.65;;;14.23;;
27257;SDS011;62045;49.986;8.672;2023-02-15T16:41:22;19.90;;;13.77;;
27257;SDS011;62045;49.986;8.672;2023-02-15T16:51:28;15.65;;;12.68;;
27257;SDS011;62045;49.986;8.672;2023-02-15T16:56:30;19.70;;;12.70;;
27257;SDS011;62045;49.986;8.672;2023-02-15T17:01:33;23.58;;;10.90;;
27257;SDS011;62045;49.986;8.672;2023-02-15T17:06:34;19.67;;;11.13;;
27257;SDS011;62045;49.986;8.672;2023-02-15T17:11:35;15.70;;;9.05;;
27257;SDS011;62045;49.986;8.672;2023-02-15T17:16:42;17.85;;;9.15;;
27257;SDS011;62045;49.986;8.672;2023-02-15T17:21:46;13.45;;;8.57;;
27257;SDS011;62045;49.986;8.672;2023-02-15T17:26:50;15.38;;;8.55;;
27257;SDS011;62045;49.986;8.672;2023-02-15T17:31:55;11.60;;;7.93;;
27257;SDS011;62045;49.986;8.672;2023-02-15T17:36:57;13.38;;;7.82;;
27257;SDS011;62045;49.986;8.672;2023-02-15T17:41:58;12.10;;;7.38;;
27257;SDS011;62045;49.986;8.672;2023-02-15T17:47:00;11.13;;;8.48;;
27257;SDS011;62045;49.986;8.672;2023-02-15T17:52:01;11.13;;;7.40;;
27257;SDS011;62045;49.986;8.672;2023-02-15T17:57:02;11.63;;;7.38;;
27257;SDS011;62045;49.986;8.672;2023-02-15T18:02:08;11.70;;;7.22;;
27257;SDS011;62045;49.986;8.672;2023-02-15T18:07:11;9.82;;;6.55;;
27257;SDS011;62045;49.986;8.672;2023-02-15T18:12:14;10.80;;;6.88;;
27257;SDS011;62045;49.986;8.672;2023-02-15T18:17:21;10.05;;;6.03;;
27257;SDS011;62045;49.986;8.672;2023-02-15T18:22:27;8.05;;;5.82;;
27257;SDS011;62045;49.986;8.672;2023-02-15T18:27:28;9.70;;;5.97;;
27257;SDS011;62045;49.986;8.672;2023-02-15T18:32:31;8.30;;;5.88;;
27257;SDS011;62045;49.986;8.672;2023-02-15T18:37:35;9.48;;;6.40;;
27257;SDS011;62045;49.986;8.672;2023-02-15T18:42:35;21.75;;;8.45;;
27257;SDS011;62045;49.986;8.672;2023-02-15T18:47:37;27.15;;;12.15;;
27257;SDS011;62045;49.986;8.672;2023-02-15T18:52:38;26.33;;;13.52;;
27257;SDS011;62045;49.986;8.672;2023-02-15T18:57:40;30.27;;;13.65;;
27257;SDS011;62045;49.986;8.672;2023-02-15T19:02:42;28.63;;;12.88;;
27257;SDS011;62045;49.986;8.672;2023-02-15T19:07:43;23.27;;;12.52;;
27257;SDS011;62045;49.986;8.672;2023-02-15T19:12:44;21.92;;;12.40;;
27257;SDS011;62045;49.986;8.672;2023-02-15T19:17:47;21.23;;;12.02;;
27257;SDS011;62045;49.986;8.672;2023-02-15T19:22:49;20.92;;;10.95;;
27257;SDS011;62045;49.986;8.672;2023-02-15T19:27:51;20.38;;;11.25;;
27257;SDS011;62045;49.986;8.672;2023-02-15T19:32:54;17.30;;;9.65;;
27257;SDS011;62045;49.986;8.672;2023-02-15T19:37:55;18.20;;;10.00;;
27257;SDS011;62045;49.986;8.672;2023-02-15T19:42:58;18.90;;;10.55;;
27257;SDS011;62045;49.986;8.672;2023-02-15T19:48:01;13.73;;;8.57;;
27257;SDS011;62045;49.986;8.672;2023-02-15T19:53:01;17.45;;;9.75;;
27257;SDS011;62045;49.986;8.672;2023-02-15T19:58:02;15.85;;;8.80;;
27257;SDS011;62045;49.986;8.672;2023-02-15T20:03:11;16.65;;;8.60;;
27257;SDS011;62045;49.986;8.672;2023-02-15T20:08:13;13.45;;;8.93;;
27257;SDS011;62045;49.986;8.672;2023-02-15T20:13:16;16.15;;;8.75;;
27257;SDS011;62045;49.986;8.672;2023-02-15T20:18:19;13.70;;;8.35;;
27257;SDS011;62045;49.986;8.672;2023-02-15T20:23:21;15.70;;;7.80;;
27257;SDS011;62045;49.986;8.672;2023-02-15T20:28:24;11.60;;;7.82;;
27257;SDS011;62045;49.986;8.672;2023-02-15T20:33:28;13.90;;;8.40;;
27257;SDS011;62045;49.986;8.672;2023-02-15T20:38:28;14.80;;;7.65;;
27257;SDS011;62045;49.986;8.672;2023-02-15T20:43:31;13.10;;;7.65;;
27257;SDS011;62045;49.986;8.672;2023-02-15T20:48:33;12.15;;;7.47;;
27257;SDS011;62045;49.986;8.672;2023-02-15T20:53:34;12.70;;;7.78;;
27257;SDS011;62045;49.986;8.672;2023-02-15T20:58:35;12.30;;;7.60;;
27257;SDS011;62045;49.986;8.672;2023-02-15T21:03:37;11.23;;;7.32;;
27257;SDS011;62045;49.986;8.672;2023-02-15T21:08:38;11.35;;;7.40;;
27257;SDS011;62045;49.986;8.672;2023-02-15T21:13:44;10.82;;;7.28;;
27257;SDS011;62045;49.986;8.672;2023-02-15T21:18:47;11.07;;;7.35;;
27257;SDS011;62045;49.986;8.672;2023-02-15T21:23:48;10.90;;;7.38;;
27257;SDS011;62045;49.986;8.672;2023-02-15T21:28:50;9.30;;;6.90;;
27257;SDS011;62045;49.986;8.672;2023-02-15T21:33:52;11.63;;;6.68;;
27257;SDS011;62045;49.986;8.672;2023-02-15T21:38:52;10.80;;;7.13;;
27257;SDS011;62045;49.986;8.672;2023-02-15T21:43:53;11.00;;;7.25;;
27257;SDS011;62045;49.986;8.672;2023-02-15T21:48:55;11.70;;;7.60;;
27257;SDS011;62045;49.986;8.672;2023-02-15T21:53:56;11.57;;;7.13;;
27257;SDS011;62045;49.986;8.672;2023-02-15T21:58:57;14.65;;;7.43;;
27257;SDS011;62045;49.986;8.672;2023-02-15T22:03:59;9.50;;;6.70;;
27257;SDS011;62045;49.986;8.672;2023-02-15T22:08:59;11.90;;;6.80;;
27257;SDS011;62045;49.986;8.672;2023-02-15T22:14:00;10.98;;;6.97;;
27257;SDS011;62045;49.986;8.672;2023-02-15T22:19:02;10.35;;;7.03;;
27257;SDS011;62045;49.986;8.672;2023-02-15T22:24:03;10.32;;;6.75;;
27257;SDS011;62045;49.986;8.672;2023-02-15T22:29:04;8.50;;;6.07;;
27257;SDS011;62045;49.986;8.672;2023-02-15T22:34:08;11.32;;;6.68;;
27257;SDS011;62045;49.986;8.672;2023-02-15T22:39:16;8.43;;;6.10;;
27257;SDS011;62045;49.986;8.672;2023-02-15T22:44:18;10.70;;;6.88;;
27257;SDS011;62045;49.986;8.672;2023-02-15T22:49:24;9.57;;;6.05;;
27257;SDS011;62045;49.986;8.672;2023-02-15T22:54:24;8.85;;;6.15;;
27257;SDS011;62045;49.986;8.672;2023-02-15T22:59:25;10.48;;;6.80;;
27257;SDS011;62045;49.986;8.672;2023-02-15T23:04:29;9.55;;;6.55;;
27257;SDS011;62045;49.986;8.672;2023-02-15T23:09:30;9.30;;;6.60;;
27257;SDS011;62045;49.986;8.672;2023-02-15T23:14:31;8.98;;;6.72;;
27257;SDS011;62045;49.986;8.672;2023-02-15T23:19:35;10.15;;;6.18;;
27257;SDS011;62045;49.986;8.672;2023-02-15T23:24:35;8.82;;;6.05;;
27257;SDS011;62045;49.986;8.672;2023-02-15T23:29:36;10.32;;;6.10;;
27257;SDS011;62045;49.986;8.672;2023-02-15T23:34:38;8.48;;;5.72;;
27257;SDS011;62045;49.986;8.672;2023-02-15T23:39:39;8.85;;;5.95;;
27257;SDS011;62045;49.986;8.672;2023-02-15T23:44:40;9.05;;;6.70;;
27257;SDS011;62045;49.986;8.672;2023-02-15T23:49:44;8.70;;;6.25;;
27257;SDS011;62045;49.986;8.672;2023-02-15T23:54:44;7.60;;;5.93;;
27257;SDS011;62045;49.986;8.672;2023-02-15T23:59:45;8.75;;;5.60;;
